createdAt,value
2023-06-30T00:00:14.554Z,20.20
2023-06-30T00:02:49.792Z,22.20
2023-06-30T00:05:20.058Z,19.90
2023-06-30T00:07:48.379Z,18.55
2023-06-30T00:10:16.557Z,21.85
2023-06-30T00:12:44.718Z,20.63
2023-06-30T00:15:13.145Z,19.27
2023-06-30T00:17:41.301Z,21.98
2023-06-30T00:20:19.118Z,18.85
2023-06-30T00:22:47.507Z,21.02
2023-06-30T00:25:15.668Z,20.98
2023-06-30T00:27:47.915Z,18.95
2023-06-30T00:30:18.736Z,20.00
2023-06-30T00:32:46.917Z,16.20
2023-06-30T00:35:17.064Z,17.23
2023-06-30T00:37:45.173Z,19.63
2023-06-30T00:40:18.335Z,17.92
2023-06-30T00:42:46.431Z,18.88
2023-06-30T00:45:14.590Z,20.15
2023-06-30T00:47:49.438Z,20.02
2023-06-30T00:50:19.086Z,19.77
2023-06-30T00:52:49.931Z,20.77
2023-06-30T00:55:19.340Z,21.45
2023-06-30T00:57:47.430Z,18.45
2023-06-30T01:00:16.559Z,17.42
2023-06-30T01:02:51.657Z,19.33
2023-06-30T01:05:30.948Z,18.40
2023-06-30T01:08:07.847Z,20.00
2023-06-30T01:10:37.841Z,20.88
2023-06-30T01:13:08.728Z,20.38
2023-06-30T01:15:38.703Z,18.67
2023-06-30T01:18:07.071Z,20.25
2023-06-30T01:20:43.458Z,17.30
2023-06-30T01:23:17.442Z,16.30
2023-06-30T01:25:53.963Z,18.60
2023-06-30T01:28:22.457Z,19.00
2023-06-30T01:30:51.343Z,17.90
2023-06-30T01:33:21.023Z,18.23
2023-06-30T01:35:51.368Z,19.77
2023-06-30T01:38:19.502Z,17.38
2023-06-30T01:40:48.632Z,17.58
2023-06-30T01:43:17.451Z,18.27
2023-06-30T01:45:45.841Z,18.60
2023-06-30T01:48:14.528Z,17.40
2023-06-30T01:50:42.672Z,18.13
2023-06-30T01:53:12.171Z,17.92
2023-06-30T01:55:41.534Z,22.38
2023-06-30T01:58:09.615Z,20.13
2023-06-30T02:00:37.710Z,20.33
2023-06-30T02:03:12.024Z,20.77
2023-06-30T02:05:40.136Z,18.35
2023-06-30T02:08:08.271Z,19.10
2023-06-30T02:10:37.771Z,23.35
2023-06-30T02:13:05.885Z,19.13
2023-06-30T02:15:34.130Z,20.58
2023-06-30T02:18:02.309Z,17.05
2023-06-30T02:20:30.409Z,18.20
2023-06-30T02:22:58.577Z,17.02
2023-06-30T02:25:26.765Z,19.40
2023-06-30T02:28:10.733Z,17.63
2023-06-30T02:30:39.543Z,17.33
2023-06-30T02:33:08.201Z,18.08
2023-06-30T02:35:36.450Z,20.20
2023-06-30T02:38:06.530Z,22.42
2023-06-30T02:40:34.630Z,18.70
2023-06-30T02:43:20.113Z,17.13
2023-06-30T02:45:48.756Z,22.88
2023-06-30T02:48:21.130Z,17.92
2023-06-30T02:50:49.293Z,20.42
2023-06-30T02:53:17.447Z,20.00
2023-06-30T02:55:45.911Z,16.02
2023-06-30T02:58:17.236Z,20.60
2023-06-30T03:00:45.436Z,19.05
2023-06-30T03:03:14.584Z,17.33
2023-06-30T03:05:43.251Z,20.20
2023-06-30T03:08:12.561Z,17.30
2023-06-30T03:10:40.692Z,18.30
2023-06-30T03:13:08.806Z,18.83
2023-06-30T03:15:54.125Z,20.65
2023-06-30T03:18:23.041Z,20.25
2023-06-30T03:20:51.811Z,19.80
2023-06-30T03:23:24.194Z,19.58
2023-06-30T03:25:52.302Z,19.42
2023-06-30T03:28:21.508Z,18.27
2023-06-30T03:30:49.936Z,18.13
2023-06-30T03:33:22.847Z,19.27
2023-06-30T03:35:53.492Z,16.95
2023-06-30T03:38:22.640Z,18.73
2023-06-30T03:40:50.860Z,20.67
2023-06-30T03:43:27.852Z,19.00
2023-06-30T03:45:55.981Z,17.85
2023-06-30T03:48:25.716Z,17.30
2023-06-30T03:51:00.067Z,21.27
2023-06-30T03:53:28.283Z,17.30
2023-06-30T03:55:56.637Z,17.75
2023-06-30T03:58:24.912Z,19.73
2023-06-30T04:00:53.030Z,20.15
2023-06-30T04:03:21.284Z,17.30
2023-06-30T04:05:50.914Z,17.73
2023-06-30T04:08:19.214Z,16.70
2023-06-30T04:10:47.450Z,19.15
2023-06-30T04:13:15.665Z,20.67
2023-06-30T04:15:44.253Z,19.98
2023-06-30T04:18:13.284Z,19.73
2023-06-30T04:20:41.727Z,19.90
2023-06-30T04:23:11.291Z,42.33
2023-06-30T04:25:41.817Z,37.10
2023-06-30T04:28:09.925Z,19.88
2023-06-30T04:30:38.318Z,20.00
2023-06-30T04:33:08.593Z,18.38
2023-06-30T04:35:36.753Z,22.15
2023-06-30T04:38:05.378Z,29.85
2023-06-30T04:40:34.972Z,18.48
2023-06-30T04:43:03.582Z,19.02
2023-06-30T04:45:32.019Z,18.17
2023-06-30T04:48:00.237Z,20.25
2023-06-30T04:50:28.397Z,18.60
2023-06-30T04:52:57.224Z,18.60
2023-06-30T04:55:25.341Z,19.38
2023-06-30T04:57:56.722Z,18.00
2023-06-30T05:00:25.635Z,16.98
2023-06-30T05:02:53.817Z,16.80
2023-06-30T05:05:22.066Z,18.27
2023-06-30T05:07:50.179Z,16.92
2023-06-30T05:10:19.369Z,17.00
2023-06-30T05:12:50.036Z,16.55
2023-06-30T05:15:19.839Z,15.40
2023-06-30T05:17:47.971Z,18.70
2023-06-30T05:20:16.436Z,16.35
2023-06-30T05:22:44.557Z,17.58
2023-06-30T05:25:12.790Z,16.77
2023-06-30T05:27:40.975Z,16.50
2023-06-30T05:30:10.149Z,15.07
2023-06-30T05:32:39.615Z,13.85
2023-06-30T05:35:08.228Z,14.02
2023-06-30T05:37:36.373Z,18.40
2023-06-30T05:40:05.129Z,15.18
2023-06-30T05:42:33.287Z,15.85
2023-06-30T05:45:01.395Z,13.32
2023-06-30T05:47:29.521Z,15.60
2023-06-30T05:49:59.611Z,13.95
2023-06-30T05:52:28.348Z,13.15
2023-06-30T05:54:56.436Z,14.30
2023-06-30T05:57:24.559Z,14.77
2023-06-30T06:00:02.864Z,13.93
2023-06-30T06:02:31.062Z,13.85
2023-06-30T06:05:08.336Z,15.63
2023-06-30T06:07:38.266Z,14.57
2023-06-30T06:10:13.918Z,15.88
2023-06-30T06:12:42.364Z,11.88
2023-06-30T06:15:11.678Z,14.93
2023-06-30T06:17:46.260Z,13.50
2023-06-30T06:20:15.859Z,16.35
2023-06-30T06:22:43.976Z,13.98
2023-06-30T06:25:12.958Z,13.80
2023-06-30T06:27:41.035Z,14.32
2023-06-30T06:30:21.265Z,13.52
2023-06-30T06:32:49.446Z,16.20
2023-06-30T06:35:18.996Z,13.43
2023-06-30T06:37:56.065Z,13.07
2023-06-30T06:40:26.380Z,14.65
2023-06-30T06:42:55.779Z,17.48
2023-06-30T06:45:24.102Z,12.55
2023-06-30T06:48:20.583Z,11.52
2023-06-30T06:50:58.215Z,14.07
2023-06-30T06:53:37.869Z,14.50
2023-06-30T06:56:06.603Z,15.18
2023-06-30T06:58:36.472Z,13.18
2023-06-30T07:01:06.133Z,11.75
2023-06-30T07:03:40.436Z,14.50
2023-06-30T07:06:17.469Z,16.65
2023-06-30T07:08:57.606Z,12.07
2023-06-30T07:11:26.092Z,12.57
2023-06-30T07:13:54.159Z,15.10
2023-06-30T07:16:22.955Z,13.57
2023-06-30T07:18:51.262Z,11.77
2023-06-30T07:21:21.341Z,12.25
2023-06-30T07:23:51.619Z,13.15
2023-06-30T07:26:27.742Z,12.93
2023-06-30T07:28:55.858Z,11.80
2023-06-30T07:31:24.047Z,13.73
2023-06-30T07:33:52.217Z,14.40
2023-06-30T07:36:38.028Z,13.73
2023-06-30T07:39:06.178Z,11.57
2023-06-30T07:41:37.219Z,13.48
2023-06-30T07:44:05.655Z,17.58
2023-06-30T07:46:35.332Z,14.40
2023-06-30T07:49:03.502Z,17.38
2023-06-30T07:51:33.133Z,13.68
2023-06-30T07:54:02.687Z,14.45
2023-06-30T07:56:30.878Z,12.40
2023-06-30T07:58:59.099Z,13.65
2023-06-30T08:01:29.178Z,14.95
2023-06-30T08:03:57.523Z,13.90
2023-06-30T08:06:25.950Z,15.57
2023-06-30T08:08:54.102Z,14.80
2023-06-30T08:11:23.681Z,13.60
2023-06-30T08:13:51.819Z,20.92
2023-06-30T08:16:20.006Z,15.60
2023-06-30T08:18:51.378Z,14.48
2023-06-30T08:21:20.811Z,16.38
2023-06-30T08:23:48.965Z,15.68
2023-06-30T08:26:17.737Z,16.50
2023-06-30T08:28:47.287Z,16.70
2023-06-30T08:31:15.502Z,15.55
2023-06-30T08:33:43.768Z,14.02
2023-06-30T08:36:11.862Z,14.43
2023-06-30T08:38:39.998Z,17.67
2023-06-30T08:41:11.901Z,14.93
2023-06-30T08:43:42.290Z,16.85
2023-06-30T08:46:13.940Z,16.00
2023-06-30T08:48:42.820Z,18.45
2023-06-30T08:51:11.696Z,14.90
2023-06-30T08:53:40.173Z,16.42
2023-06-30T08:56:10.361Z,17.30
2023-06-30T08:58:39.059Z,14.10
2023-06-30T09:01:07.535Z,15.60
2023-06-30T09:03:38.431Z,15.52
2023-06-30T09:06:07.121Z,14.82
2023-06-30T09:08:42.959Z,15.38
2023-06-30T09:11:11.315Z,17.25
2023-06-30T09:13:40.976Z,16.77
2023-06-30T09:16:19.084Z,20.15
2023-06-30T09:18:50.387Z,15.98
2023-06-30T09:21:19.484Z,15.02
2023-06-30T09:23:53.074Z,17.08
2023-06-30T09:26:21.448Z,20.08
2023-06-30T09:28:49.550Z,16.58
2023-06-30T09:31:17.809Z,19.15
2023-06-30T09:33:49.146Z,15.57
2023-06-30T09:36:21.935Z,16.73
2023-06-30T09:38:58.290Z,14.82
2023-06-30T09:41:28.783Z,15.75
2023-06-30T09:43:59.568Z,16.02
2023-06-30T09:46:29.833Z,18.60
2023-06-30T09:49:03.140Z,15.18
2023-06-30T09:51:35.411Z,15.43
2023-06-30T09:54:03.549Z,15.98
2023-06-30T09:56:31.918Z,14.07
2023-06-30T09:59:00.051Z,14.85
2023-06-30T10:01:28.403Z,15.23
2023-06-30T10:03:57.662Z,15.60
2023-06-30T10:06:29.435Z,14.90
2023-06-30T10:09:05.428Z,14.55
2023-06-30T10:11:38.111Z,16.27
2023-06-30T10:14:07.181Z,17.35
2023-06-30T10:16:35.689Z,14.90
2023-06-30T10:19:04.985Z,15.10
2023-06-30T10:21:45.388Z,15.52
2023-06-30T10:24:15.525Z,18.23
2023-06-30T10:26:43.688Z,13.65
2023-06-30T10:29:11.975Z,16.15
2023-06-30T10:31:40.129Z,19.33
2023-06-30T10:34:08.447Z,16.67
2023-06-30T10:36:36.830Z,16.48
2023-06-30T10:39:05.415Z,16.90
2023-06-30T10:41:47.087Z,16.15
2023-06-30T10:44:15.363Z,16.75
2023-06-30T10:46:47.556Z,14.80
2023-06-30T10:49:23.804Z,16.17
2023-06-30T10:51:53.557Z,17.05
2023-06-30T10:54:25.847Z,15.82
2023-06-30T10:57:11.501Z,15.85
2023-06-30T10:59:41.369Z,15.82
2023-06-30T11:02:13.581Z,15.68
2023-06-30T11:04:43.093Z,15.40
2023-06-30T11:07:12.382Z,14.20
2023-06-30T11:09:59.657Z,14.85
2023-06-30T11:12:30.726Z,16.27
2023-06-30T11:15:00.100Z,14.88
2023-06-30T11:18:04.827Z,15.40
2023-06-30T11:20:33.115Z,17.77
2023-06-30T11:23:02.905Z,15.93
2023-06-30T11:25:32.343Z,14.55
2023-06-30T11:28:03.609Z,13.20
2023-06-30T11:30:37.667Z,12.07
2023-06-30T11:33:16.938Z,16.58
2023-06-30T11:35:51.717Z,13.57
2023-06-30T11:38:19.927Z,17.40
2023-06-30T11:40:49.411Z,14.45
2023-06-30T11:43:23.329Z,13.77
2023-06-30T11:46:03.134Z,14.35
2023-06-30T11:48:38.322Z,15.45
2023-06-30T11:51:06.637Z,18.02
2023-06-30T11:53:34.832Z,14.15
2023-06-30T11:56:04.270Z,14.80
2023-06-30T11:58:33.737Z,16.13
2023-06-30T12:01:31.581Z,15.15
2023-06-30T12:04:01.048Z,15.27
2023-06-30T12:06:30.404Z,17.13
2023-06-30T12:08:59.521Z,15.45
2023-06-30T12:11:30.368Z,17.52
2023-06-30T12:13:59.882Z,14.93
2023-06-30T12:16:28.206Z,19.40
2023-06-30T12:18:57.330Z,16.90
2023-06-30T12:21:25.546Z,14.27
2023-06-30T12:23:55.726Z,18.38
2023-06-30T12:26:28.076Z,18.42
2023-06-30T12:29:06.221Z,18.90
2023-06-30T12:31:34.484Z,18.90
2023-06-30T12:34:02.803Z,15.77
2023-06-30T12:36:31.096Z,15.48
2023-06-30T12:38:59.327Z,17.48
2023-06-30T12:41:27.420Z,19.67
2023-06-30T12:44:04.632Z,18.42
2023-06-30T12:46:36.833Z,52.15
2023-06-30T12:49:06.561Z,18.58
2023-06-30T12:51:34.663Z,16.20
2023-06-30T12:54:20.126Z,16.05
2023-06-30T12:56:48.231Z,16.83
2023-06-30T12:59:17.935Z,19.48
2023-06-30T13:01:48.246Z,17.55
2023-06-30T13:04:16.745Z,19.58
2023-06-30T13:06:44.917Z,17.35
2023-06-30T13:09:13.090Z,16.35
2023-06-30T13:11:42.499Z,17.88
2023-06-30T13:14:10.666Z,17.50
2023-06-30T13:16:47.489Z,14.73
2023-06-30T13:19:15.773Z,14.65
2023-06-30T13:21:43.980Z,15.77
2023-06-30T13:24:12.844Z,13.95
2023-06-30T13:26:46.537Z,12.75
2023-06-30T13:29:14.933Z,13.75
2023-06-30T13:31:44.268Z,14.15
2023-06-30T13:34:14.023Z,14.02
2023-06-30T13:36:42.466Z,14.38
2023-06-30T13:39:10.884Z,12.30
2023-06-30T13:41:39.150Z,14.52
2023-06-30T13:44:07.496Z,14.82
2023-06-30T13:46:35.650Z,14.80
2023-06-30T13:49:03.759Z,15.82
2023-06-30T13:51:35.332Z,19.15
2023-06-30T13:54:04.108Z,15.82
2023-06-30T13:56:32.441Z,17.17
2023-06-30T13:59:00.567Z,15.57
2023-06-30T14:01:29.500Z,16.98
2023-06-30T14:03:58.913Z,15.52
2023-06-30T14:06:27.092Z,17.85
2023-06-30T14:08:57.364Z,17.90
2023-06-30T14:11:25.501Z,18.05
2023-06-30T14:13:53.710Z,16.98
2023-06-30T14:16:21.865Z,18.88
2023-06-30T14:18:50.113Z,21.27
2023-06-30T14:21:19.420Z,19.08
2023-06-30T14:23:47.820Z,19.58
2023-06-30T14:26:17.320Z,22.60
2023-06-30T14:28:45.829Z,19.63
2023-06-30T14:31:30.487Z,19.15
2023-06-30T14:33:58.641Z,20.05
2023-06-30T14:36:27.328Z,22.92
2023-06-30T14:38:55.662Z,20.45
2023-06-30T14:41:25.201Z,20.58
2023-06-30T14:43:53.319Z,20.58
2023-06-30T14:46:21.493Z,21.85
2023-06-30T14:48:50.166Z,22.98
2023-06-30T14:51:18.416Z,22.13
2023-06-30T14:53:46.645Z,21.75
2023-06-30T14:56:14.849Z,18.30
2023-06-30T14:58:44.889Z,22.67
2023-06-30T15:01:13.069Z,20.08
2023-06-30T15:03:41.252Z,19.95
2023-06-30T15:06:16.251Z,23.15
2023-06-30T15:08:44.873Z,23.02
2023-06-30T15:11:13.150Z,21.23
2023-06-30T15:13:41.258Z,22.90
2023-06-30T15:16:10.798Z,19.95
2023-06-30T15:18:38.961Z,20.92
2023-06-30T15:21:07.065Z,23.00
2023-06-30T15:23:35.268Z,22.40
2023-06-30T15:26:04.555Z,21.17
2023-06-30T15:28:34.570Z,21.08
2023-06-30T15:31:04.687Z,21.65
2023-06-30T15:33:34.322Z,19.90
2023-06-30T15:36:02.921Z,21.17
2023-06-30T15:38:31.032Z,18.48
2023-06-30T15:40:59.968Z,19.60
2023-06-30T15:43:32.214Z,21.88
2023-06-30T15:46:00.387Z,21.42
2023-06-30T15:48:28.516Z,20.48
2023-06-30T15:50:58.015Z,22.88
2023-06-30T15:53:26.141Z,17.90
2023-06-30T15:55:55.532Z,21.20
2023-06-30T15:58:23.642Z,19.42
2023-06-30T16:00:51.755Z,22.17
2023-06-30T16:03:19.989Z,21.15
2023-06-30T16:05:48.625Z,21.95
2023-06-30T16:08:18.436Z,19.27
2023-06-30T16:10:46.985Z,20.83
2023-06-30T16:13:16.544Z,19.95
2023-06-30T16:15:44.930Z,21.67
2023-06-30T16:18:13.547Z,20.55
2023-06-30T16:20:41.724Z,21.50
2023-06-30T16:23:11.946Z,22.42
2023-06-30T16:25:42.672Z,20.63
2023-06-30T16:28:17.093Z,19.85
2023-06-30T16:30:45.293Z,20.52
2023-06-30T16:33:17.777Z,21.77
2023-06-30T16:35:46.091Z,20.80
2023-06-30T16:38:14.538Z,21.08
2023-06-30T16:40:51.267Z,19.65
2023-06-30T16:43:19.372Z,21.27
2023-06-30T16:45:48.168Z,18.60
2023-06-30T16:48:16.625Z,21.08
2023-06-30T16:50:44.717Z,19.23
2023-06-30T16:53:12.829Z,19.90
2023-06-30T16:55:40.942Z,26.17
2023-06-30T16:58:10.494Z,17.50
2023-06-30T17:00:43.826Z,18.92
2023-06-30T17:03:12.104Z,19.10
2023-06-30T17:05:40.293Z,18.92
2023-06-30T17:08:08.613Z,16.90
2023-06-30T17:10:36.691Z,13.20
2023-06-30T17:13:06.702Z,14.57
2023-06-30T17:15:36.200Z,14.05
2023-06-30T17:18:04.467Z,14.32
2023-06-30T17:20:34.627Z,14.73
2023-06-30T17:23:02.784Z,13.90
2023-06-30T17:25:33.903Z,13.68
2023-06-30T17:28:04.247Z,14.10
2023-06-30T17:30:39.669Z,12.35
2023-06-30T17:33:09.857Z,12.48
2023-06-30T17:35:38.033Z,10.98
2023-06-30T17:38:06.159Z,13.13
2023-06-30T17:40:34.295Z,18.00
2023-06-30T17:43:20.971Z,10.73
2023-06-30T17:45:52.466Z,13.23
2023-06-30T17:48:20.537Z,12.45
2023-06-30T17:50:48.800Z,12.90
2023-06-30T17:53:17.128Z,13.45
2023-06-30T17:55:50.046Z,13.15
2023-06-30T17:58:18.214Z,11.57
2023-06-30T18:00:52.750Z,14.25
2023-06-30T18:03:20.962Z,11.80
2023-06-30T18:05:49.585Z,12.88
2023-06-30T18:08:17.698Z,13.45
2023-06-30T18:10:49.068Z,13.57
2023-06-30T18:13:22.779Z,15.70
2023-06-30T18:15:52.366Z,15.38
2023-06-30T18:18:24.115Z,12.80
2023-06-30T18:21:09.069Z,14.70
2023-06-30T18:23:37.997Z,11.57
2023-06-30T18:26:10.426Z,14.25
2023-06-30T18:28:40.691Z,14.93
2023-06-30T18:31:11.090Z,14.73
2023-06-30T18:33:46.329Z,16.17
2023-06-30T18:36:15.178Z,13.77
2023-06-30T18:38:45.720Z,14.65
2023-06-30T18:41:15.817Z,16.75
2023-06-30T18:43:51.289Z,16.65
2023-06-30T18:46:21.090Z,16.77
2023-06-30T18:48:49.642Z,18.05
2023-06-30T18:51:28.256Z,16.00
2023-06-30T18:53:56.847Z,13.82
2023-06-30T18:56:27.144Z,15.02
2023-06-30T18:58:59.569Z,16.42
2023-06-30T19:01:30.255Z,15.05
2023-06-30T19:04:00.025Z,12.55
2023-06-30T19:06:28.895Z,14.30
2023-06-30T19:08:57.675Z,13.88
2023-06-30T19:11:35.491Z,13.82
2023-06-30T19:14:04.023Z,11.73
2023-06-30T19:16:40.226Z,14.07
2023-06-30T19:19:10.765Z,12.18
2023-06-30T19:21:39.150Z,12.40
2023-06-30T19:24:11.168Z,11.45
2023-06-30T19:26:41.781Z,12.88
2023-06-30T19:29:10.256Z,11.82
2023-06-30T19:31:41.800Z,12.18
2023-06-30T19:34:10.443Z,11.65
2023-06-30T19:36:38.808Z,10.23
2023-06-30T19:39:07.817Z,12.10
2023-06-30T19:41:36.220Z,14.05
2023-06-30T19:44:04.374Z,11.18
2023-06-30T19:46:34.623Z,12.48
2023-06-30T19:49:04.386Z,13.30
2023-06-30T19:51:32.989Z,10.02
2023-06-30T19:54:01.125Z,8.82
2023-06-30T19:56:29.247Z,7.78
2023-06-30T19:58:57.482Z,9.25
2023-06-30T20:01:27.646Z,8.88
2023-06-30T20:03:56.290Z,11.35
2023-06-30T20:06:26.435Z,10.30
2023-06-30T20:08:54.531Z,8.48
2023-06-30T20:11:35.217Z,10.48
2023-06-30T20:14:03.438Z,12.48
2023-06-30T20:16:45.361Z,9.80
2023-06-30T20:19:13.483Z,12.02
2023-06-30T20:21:43.233Z,9.65
2023-06-30T20:24:11.783Z,9.90
2023-06-30T20:26:40.038Z,8.40
2023-06-30T20:29:11.953Z,8.55
2023-06-30T20:31:40.385Z,8.75
2023-06-30T20:34:08.822Z,8.20
2023-06-30T20:36:37.696Z,7.72
2023-06-30T20:39:07.546Z,7.55
2023-06-30T20:41:35.754Z,8.82
2023-06-30T20:44:05.994Z,9.07
2023-06-30T20:46:34.963Z,6.57
2023-06-30T20:49:04.970Z,7.15
2023-06-30T20:51:33.169Z,7.95
2023-06-30T20:54:01.278Z,7.60
2023-06-30T20:56:31.060Z,6.68
2023-06-30T20:58:59.197Z,6.15
2023-06-30T21:01:27.396Z,6.47
2023-06-30T21:03:56.399Z,6.00
2023-06-30T21:06:35.746Z,6.32
2023-06-30T21:09:06.224Z,7.80
2023-06-30T21:11:35.937Z,5.80
2023-06-30T21:14:04.148Z,4.68
2023-06-30T21:16:32.406Z,3.90
2023-06-30T21:19:01.038Z,5.40
2023-06-30T21:21:31.352Z,3.80
2023-06-30T21:23:59.493Z,4.20
2023-06-30T21:26:27.702Z,5.43
2023-06-30T21:28:59.274Z,4.95
2023-06-30T21:31:27.437Z,4.57
2023-06-30T21:33:55.604Z,4.10
2023-06-30T21:36:23.884Z,4.53
2023-06-30T21:38:52.095Z,5.60
2023-06-30T21:41:20.350Z,5.28
2023-06-30T21:43:49.978Z,5.75
2023-06-30T21:46:19.828Z,6.60
2023-06-30T21:48:49.701Z,4.10
2023-06-30T21:51:18.321Z,5.28
2023-06-30T21:53:46.605Z,4.95
2023-06-30T21:56:14.868Z,5.90
2023-06-30T21:58:45.171Z,4.47
2023-06-30T22:01:14.192Z,3.97
2023-06-30T22:03:44.963Z,5.15
2023-06-30T22:06:13.182Z,4.05
2023-06-30T22:08:42.371Z,5.13
2023-06-30T22:11:11.610Z,6.20
2023-06-30T22:13:40.199Z,4.50
2023-06-30T22:16:08.498Z,6.03
2023-06-30T22:18:37.310Z,4.38
2023-06-30T22:21:06.935Z,4.57
2023-06-30T22:23:35.156Z,4.28
2023-06-30T22:26:03.416Z,6.82
2023-06-30T22:28:42.522Z,4.43
2023-06-30T22:31:11.436Z,4.65
2023-06-30T22:33:40.022Z,7.45
2023-06-30T22:36:10.706Z,7.70
2023-06-30T22:38:39.829Z,7.03
2023-06-30T22:41:12.404Z,5.10
2023-06-30T22:43:44.548Z,5.40
2023-06-30T22:46:13.493Z,5.65
2023-06-30T22:48:41.819Z,6.38
2023-06-30T22:51:11.325Z,7.18
2023-06-30T22:53:39.657Z,6.07
2023-06-30T22:56:08.498Z,6.10
2023-06-30T22:58:36.644Z,5.75
2023-06-30T23:01:06.597Z,5.68
2023-06-30T23:03:34.863Z,8.00
2023-06-30T23:06:03.119Z,6.90
2023-06-30T23:08:32.708Z,7.80
2023-06-30T23:11:00.895Z,5.78
2023-06-30T23:13:29.071Z,5.70
2023-06-30T23:16:02.144Z,5.68
2023-06-30T23:18:38.351Z,8.63
2023-06-30T23:21:10.585Z,6.15
2023-06-30T23:23:42.303Z,6.25
2023-06-30T23:26:15.152Z,5.50
2023-06-30T23:28:50.658Z,5.93
2023-06-30T23:31:20.718Z,5.43
2023-06-30T23:33:51.879Z,6.38
2023-06-30T23:36:20.637Z,5.40
2023-06-30T23:38:50.124Z,5.47
2023-06-30T23:41:18.322Z,6.00
2023-06-30T23:43:46.453Z,6.72
2023-06-30T23:46:19.300Z,6.53
2023-06-30T23:48:48.281Z,5.85
2023-06-30T23:51:16.398Z,6.63
2023-06-30T23:53:44.556Z,6.70
2023-06-30T23:56:14.119Z,7.22
2023-06-30T23:59:01.909Z,7.10
